TimeEDT,TemperatureF,Dew PointF,Humidity,Sea Level PressureIn,VisibilityMPH,Wind Direction,Wind SpeedMPH,Gust SpeedMPH,PrecipitationIn,Events,Conditions,WindDirDegrees,DateUTC
12:52 AM,57.9,55.0,90,29.87,9.0,Calm,Calm,-,N/A,,Overcast,0,2012-10-06 04:52:00
1:52 AM,59.0,55.9,90,29.86,7.0,Calm,Calm,-,0.00,Rain,Light Rain,0,2012-10-06 05:52:00
2:52 AM,57.9,55.9,93,29.83,6.0,Calm,Calm,-,0.00,,Overcast,0,2012-10-06 06:52:00
3:52 AM,57.9,55.9,93,29.82,6.0,Calm,Calm,-,N/A,,Overcast,0,2012-10-06 07:52:00
4:52 AM,57.9,55.9,93,29.79,7.0,Calm,Calm,-,N/A,,Mostly Cloudy,0,2012-10-06 08:52:00
5:52 AM,57.0,55.0,93,29.78,6.0,Calm,Calm,-,N/A,,Overcast,0,2012-10-06 09:52:00
6:47 AM,55.4,53.6,94,29.76,1.8,Calm,Calm,-,N/A,,Clear,0,2012-10-06 10:47:00
6:52 AM,55.0,53.1,93,29.76,1.2,Calm,Calm,-,N/A,,Clear,0,2012-10-06 10:52:00
7:07 AM,55.4,53.6,94,29.76,2.5,Calm,Calm,-,N/A,,Clear,0,2012-10-06 11:07:00
7:24 AM,55.4,53.6,94,29.76,4.0,Calm,Calm,-,N/A,,Clear,0,2012-10-06 11:24:00
8:52 AM,69.1,55.0,61,29.74,10.0,SW,6.9,-,N/A,,Overcast,220,2012-10-06 12:52:00
10:52 AM,70.0,54.0,57,29.70,10.0,SSW,8.1,-,N/A,,Partly Cloudy,210,2012-10-06 14:52:00
11:52 AM,71.1,52.0,51,29.68,10.0,SSW,11.5,24.2,N/A,,Overcast,200,2012-10-06 15:52:00
12:52 PM,66.9,55.0,66,29.67,6.0,SW,9.2,16.1,0.00,Rain,Light Rain,220,2012-10-06 16:52:00
1:52 PM,66.0,55.9,70,29.66,9.0,WSW,8.1,-,0.01,Rain,Light Rain,240,2012-10-06 17:52:00
2:08 PM,55.4,51.8,88,29.69,3.0,WNW,12.7,27.6,0.03,Rain,Light Rain,290,2012-10-06 18:08:00
2:25 PM,53.6,51.8,94,29.70,1.8,WNW,9.2,18.4,0.09,Rain,Heavy Rain,300,2012-10-06 18:25:00
2:36 PM,53.6,51.8,94,29.71,2.0,West,5.8,16.1,0.14,Rain,Heavy Rain,270,2012-10-06 18:36:00
2:49 PM,53.6,50.0,88,29.73,9.0,NW,8.1,-,0.17,Rain,Light Rain,310,2012-10-06 18:49:00
2:50 PM,54.0,50.0,86,29.74,10.0,NW,6.9,-,0.17,Rain,Light Rain,310,2012-10-06 18:50:00
3:37 PM,51.8,48.2,88,29.78,1.8,West,5.8,-,0.06,Rain,Heavy Rain,260,2012-10-06 19:37:00
3:46 PM,51.8,48.2,88,29.79,2.0,Calm,Calm,-,0.09,Rain,Rain,0,2012-10-06 19:46:00
3:47 PM,51.8,48.2,88,29.79,1.8,Calm,Calm,-,0.09,Rain,Rain,0,2012-10-06 19:47:00
3:52 PM,51.1,48.0,89,29.81,2.0,West,5.8,-,0.10,Rain,Rain,270,2012-10-06 19:52:00
4:11 PM,51.8,48.2,88,29.80,4.0,Calm,Calm,-,0.03,Rain,Light Rain,0,2012-10-06 20:11:00
4:43 PM,51.8,48.2,88,29.79,10.0,Calm,Calm,-,0.05,Rain,Light Rain,0,2012-10-06 20:43:00
4:52 PM,51.1,48.0,89,29.81,10.0,Calm,Calm,-,0.05,Rain,Light Rain,0,2012-10-06 20:52:00
5:12 PM,51.8,48.2,88,29.79,10.0,Calm,Calm,-,0.00,,Overcast,0,2012-10-06 21:12:00
5:52 PM,51.1,46.9,86,29.82,10.0,Calm,Calm,-,0.02,Rain,Light Rain,0,2012-10-06 21:52:00
6:52 PM,50.0,48.0,93,29.83,10.0,Calm,Calm,-,N/A,,Overcast,0,2012-10-06 22:52:00
7:52 PM,50.0,48.0,93,29.84,10.0,Calm,Calm,-,N/A,,Overcast,0,2012-10-06 23:52:00
8:52 PM,50.0,46.0,86,29.85,10.0,SW,3.5,-,N/A,,Overcast,220,2012-10-07 00:52:00
9:52 PM,50.0,44.1,80,29.86,10.0,SW,3.5,-,N/A,,Overcast,220,2012-10-07 01:52:00
10:52 PM,46.9,44.1,90,29.89,10.0,SSW,4.6,-,N/A,,Overcast,210,2012-10-07 02:52:00
11:52 PM,46.9,39.0,74,29.91,10.0,WSW,4.6,-,N/A,,Scattered Clouds,240,2012-10-07 03:52:00